»·PEaware :: N7GL KRAL-KFAT

N7GL :: KRAL-KFAT

FLIGHT INFORMATION

Flight Status: Arrived
Operator: Privately registered:
United States
More flights under this callsign
Pilot: Georg L. (13308)
Aircraft: BEECH AIRCRAFT SUPER KING AIR 350
(B350)
More flights by this aircraft type
Origin: KRAL Riverside Mun
United States
Destination: KFAT Fresno Yosemite Intl
United States
More flights between these airports :: More routes between these airports
Route: +LHS V459 ALTTA
File this flight plan on PilotEdge
Remarks:
Altitude:
(Current/Filed)
20,000ft
Speed:
(Current/Filed)
294kts
Departed: 18-Oct-20 08:35 AM
Arrived: 18-Oct-20 09:30 AM
Distance/Time
Traveled:
203nm/0:54
Distance/Time
To Go:
Arrived

Flight Plot

Page will automatically refresh every two minutes.

Flight plan parsing failed; only flown route is shown


Map Options




Map Legend


Flown Route
Filed Route
Departure Airport
Arrival Airport
Navaid (VOR, NDB)
Fix

Horizontal Profiles

Position Reports

Time Latitude Longitude Heading Altitude Ground
Speed
18-Oct-20 08:15 33.950100 -117.443106 295 820ft 0kts
18-Oct-20 08:16 33.950100 -117.443106 295 820ft 0kts
18-Oct-20 08:17 33.950100 -117.443106 295 820ft 0kts
18-Oct-20 08:18 33.950100 -117.443106 295 820ft 0kts
18-Oct-20 08:19 33.950100 -117.443106 295 820ft 0kts
18-Oct-20 08:20 33.950100 -117.443106 295 820ft 0kts
18-Oct-20 08:21 33.950100 -117.443106 295 820ft 0kts
18-Oct-20 08:22 33.950100 -117.443106 295 820ft 0kts
18-Oct-20 08:23 33.950100 -117.443106 295 820ft 0kts
18-Oct-20 08:24 33.950100 -117.443106 295 820ft 0kts
18-Oct-20 08:25 33.950100 -117.443106 295 820ft 0kts
18-Oct-20 08:26 33.950100 -117.443106 295 820ft 0kts
18-Oct-20 08:27 33.950100 -117.443106 295 820ft 0kts
18-Oct-20 08:28 33.950100 -117.443106 295 820ft 0kts
18-Oct-20 08:29 33.950100 -117.443106 295 820ft 0kts
18-Oct-20 08:30 33.950790 -117.442439 46 820ft 9kts
18-Oct-20 08:31 33.950760 -117.440187 57 820ft 9kts
18-Oct-20 08:32 33.949951 -117.435624 104 820ft 15kts
18-Oct-20 08:33 33.949956 -117.435001 43 820ft 0kts
18-Oct-20 08:34 33.952722 -117.446048 283 847ft 120kts
18-Oct-20 08:35 33.961588 -117.492086 281 2516ft 150kts
18-Oct-20 08:36 33.968721 -117.542546 280 4372ft 168kts
18-Oct-20 08:37 33.984733 -117.597021 301 5932ft 173kts
18-Oct-20 08:38 34.013995 -117.656024 300 6081ft 229kts
18-Oct-20 08:39 34.044351 -117.717775 301 7723ft 198kts
18-Oct-20 08:40 34.070960 -117.770014 301 9491ft 171kts
18-Oct-20 08:41 34.098640 -117.817017 309 10828ft 174kts
18-Oct-20 08:42 34.130171 -117.862287 309 12221ft 177kts
18-Oct-20 08:43 34.162177 -117.908492 309 13630ft 181kts
18-Oct-20 08:44 34.196420 -117.953712 313 15054ft 185kts
18-Oct-20 08:45 34.232403 -117.999061 312 16510ft 188kts
18-Oct-20 08:46 34.268779 -118.045437 311 17995ft 192kts
18-Oct-20 08:47 34.305306 -118.092022 311 19452ft 191kts
18-Oct-20 08:48 34.343009 -118.140204 311 20196ft 215kts
18-Oct-20 08:49 34.386461 -118.195665 311 20174ft 236kts
18-Oct-20 08:50 34.432979 -118.255156 312 20169ft 249kts
18-Oct-20 08:51 34.481202 -118.316986 312 20167ft 256kts
18-Oct-20 08:52 34.530733 -118.380624 312 20165ft 261kts
18-Oct-20 08:53 34.580752 -118.445032 312 20164ft 264kts
18-Oct-20 08:54 34.631242 -118.510171 312 20148ft 266kts
18-Oct-20 08:55 34.683668 -118.574170 327 20106ft 269kts
18-Oct-20 08:56 34.754507 -118.602764 342 20162ft 270kts
18-Oct-20 08:57 34.826536 -118.628093 342 20213ft 269kts
18-Oct-20 08:58 34.898308 -118.653653 341 20247ft 269kts
18-Oct-20 08:59 34.970027 -118.679291 341 20247ft 270kts
18-Oct-20 09:00 35.042157 -118.705116 341 20247ft 271kts
18-Oct-20 09:01 35.114581 -118.730795 341 20246ft 271kts
18-Oct-20 09:02 35.187117 -118.756573 341 20247ft 272kts
18-Oct-20 09:03 35.259622 -118.782795 341 20249ft 272kts
18-Oct-20 09:04 35.332190 -118.809136 341 20256ft 272kts
18-Oct-20 09:05 35.404576 -118.835435 341 20260ft 272kts
18-Oct-20 09:06 35.479675 -118.862782 341 19368ft 300kts
18-Oct-20 09:07 35.562513 -118.892821 341 17957ft 321kts
18-Oct-20 09:08 35.648653 -118.924018 342 16469ft 320kts
18-Oct-20 09:09 35.732464 -118.954520 342 15004ft 309kts
18-Oct-20 09:10 35.808822 -118.982474 342 14987ft 269kts
18-Oct-20 09:11 35.877764 -119.007749 341 14990ft 249kts
18-Oct-20 09:12 35.943407 -119.033847 337 15011ft 259kts
18-Oct-20 09:13 36.013042 -119.068020 337 15012ft 277kts
18-Oct-20 09:14 36.089079 -119.104160 340 14017ft 308kts
18-Oct-20 09:15 36.168851 -119.141611 338 12331ft 299kts
18-Oct-20 09:16 36.244149 -119.177884 338 10376ft 283kts
18-Oct-20 09:17 36.316287 -119.212559 338 8609ft 275kts
18-Oct-20 09:18 36.387091 -119.246588 338 7026ft 271kts
18-Oct-20 09:19 36.456625 -119.280176 338 5534ft 268kts
18-Oct-20 09:20 36.525311 -119.313459 338 4277ft 260kts
18-Oct-20 09:21 36.576944 -119.368366 305 3189ft 241kts
18-Oct-20 09:22 36.613226 -119.431987 305 2772ft 202kts
18-Oct-20 09:23 36.645851 -119.488844 306 2803ft 204kts
18-Oct-20 09:25 36.679704 -119.547694 306 2592ft 219kts
18-Oct-20 09:26 36.713957 -119.607460 305 1779ft 200kts
18-Oct-20 09:27 36.740143 -119.653292 304 1347ft 137kts
18-Oct-20 09:28 36.760167 -119.688569 304 664ft 121kts
18-Oct-20 09:29 36.775548 -119.715317 305 334ft 42kts
18-Oct-20 09:30 36.775039 -119.720544 181 334ft 9kts
18-Oct-20 09:31 36.775315 -119.723096 305 334ft 14kts
18-Oct-20 09:32 36.776312 -119.725828 282 334ft 9kts
18-Oct-20 09:33 36.776499 -119.726423 306 334ft 0kts
18-Oct-20 09:34 36.776499 -119.726423 306 334ft 0kts

Navigation Log

Ident Type
Flight plan parsing failed, navigation log unavailable